sensor_id;sensor_type;location;lat;lon;timestamp;temperature;humidity
76577;DHT22;65441;44.748;37.600;2022-12-31T00:01:33;10.59;89.73
76577;DHT22;65441;44.748;37.600;2022-12-31T00:04:10;10.58;89.62
76577;DHT22;65441;44.748;37.600;2022-12-31T00:06:44;10.62;89.60
76577;DHT22;65441;44.748;37.600;2022-12-31T00:09:18;10.65;89.05
76577;DHT22;65441;44.748;37.600;2022-12-31T00:11:55;10.67;89.23
76577;DHT22;65441;44.748;37.600;2022-12-31T00:14:29;10.68;89.35
76577;DHT22;65441;44.748;37.600;2022-12-31T00:17:03;10.71;88.94
76577;DHT22;65441;44.748;37.600;2022-12-31T00:19:38;10.70;88.74
76577;DHT22;65441;44.748;37.600;2022-12-31T00:22:12;10.72;88.77
76577;DHT22;65441;44.748;37.600;2022-12-31T00:24:46;10.74;88.57
76577;DHT22;65441;44.748;37.600;2022-12-31T00:27:21;10.74;88.51
76577;DHT22;65441;44.748;37.600;2022-12-31T00:29:55;10.74;88.14
76577;DHT22;65441;44.748;37.600;2022-12-31T00:32:34;10.77;87.98
76577;DHT22;65441;44.748;37.600;2022-12-31T00:35:09;10.75;87.56
76577;DHT22;65441;44.748;37.600;2022-12-31T00:37:43;10.79;87.76
76577;DHT22;65441;44.748;37.600;2022-12-31T00:40:17;10.80;87.55
76577;DHT22;65441;44.748;37.600;2022-12-31T00:42:58;10.82;87.77
76577;DHT22;65441;44.748;37.600;2022-12-31T00:45:37;10.83;87.98
76577;DHT22;65441;44.748;37.600;2022-12-31T00:48:11;10.83;88.03
76577;DHT22;65441;44.748;37.600;2022-12-31T00:50:45;10.81;88.18
76577;DHT22;65441;44.748;37.600;2022-12-31T00:53:19;10.84;88.21
76577;DHT22;65441;44.748;37.600;2022-12-31T00:55:59;10.83;88.06
76577;DHT22;65441;44.748;37.600;2022-12-31T00:58:35;10.83;87.97
76577;DHT22;65441;44.748;37.600;2022-12-31T01:01:09;10.83;88.23
76577;DHT22;65441;44.748;37.600;2022-12-31T01:03:51;10.85;87.72
76577;DHT22;65441;44.748;37.600;2022-12-31T01:06:28;10.86;87.99
76577;DHT22;65441;44.748;37.600;2022-12-31T01:09:03;10.85;88.17
76577;DHT22;65441;44.748;37.600;2022-12-31T01:11:41;10.86;88.14
76577;DHT22;65441;44.748;37.600;2022-12-31T01:14:18;10.87;88.08
76577;DHT22;65441;44.748;37.600;2022-12-31T01:16:52;10.86;87.99
76577;DHT22;65441;44.748;37.600;2022-12-31T01:19:28;10.85;88.10
76577;DHT22;65441;44.748;37.600;2022-12-31T01:22:02;10.88;88.28
76577;DHT22;65441;44.748;37.600;2022-12-31T01:24:35;10.90;88.29
76577;DHT22;65441;44.748;37.600;2022-12-31T01:27:09;10.92;88.20
76577;DHT22;65441;44.748;37.600;2022-12-31T01:29:49;10.89;87.60
76577;DHT22;65441;44.748;37.600;2022-12-31T01:32:23;10.93;87.54
76577;DHT22;65441;44.748;37.600;2022-12-31T01:34:57;10.92;87.30
76577;DHT22;65441;44.748;37.600;2022-12-31T01:37:32;10.92;87.47
76577;DHT22;65441;44.748;37.600;2022-12-31T01:40:06;10.90;87.45
76577;DHT22;65441;44.748;37.600;2022-12-31T01:42:41;10.89;87.45
76577;DHT22;65441;44.748;37.600;2022-12-31T01:45:16;10.90;87.32
76577;DHT22;65441;44.748;37.600;2022-12-31T01:47:52;10.88;87.15
76577;DHT22;65441;44.748;37.600;2022-12-31T01:50:30;10.88;87.18
76577;DHT22;65441;44.748;37.600;2022-12-31T01:53:06;10.88;87.29
76577;DHT22;65441;44.748;37.600;2022-12-31T01:55:44;10.89;87.12
76577;DHT22;65441;44.748;37.600;2022-12-31T01:58:26;10.95;86.98
76577;DHT22;65441;44.748;37.600;2022-12-31T02:01:04;10.96;86.86
76577;DHT22;65441;44.748;37.600;2022-12-31T02:03:42;10.97;86.90
76577;DHT22;65441;44.748;37.600;2022-12-31T02:06:17;11.00;86.99
76577;DHT22;65441;44.748;37.600;2022-12-31T02:08:52;10.95;87.16
76577;DHT22;65441;44.748;37.600;2022-12-31T02:11:29;10.98;87.12
76577;DHT22;65441;44.748;37.600;2022-12-31T02:14:07;10.98;87.08
76577;DHT22;65441;44.748;37.600;2022-12-31T02:16:52;10.96;86.96
76577;DHT22;65441;44.748;37.600;2022-12-31T02:20:06;10.98;86.96
76577;DHT22;65441;44.748;37.600;2022-12-31T02:23:05;10.98;87.00
76577;DHT22;65441;44.748;37.600;2022-12-31T02:25:58;11.01;86.84
76577;DHT22;65441;44.748;37.600;2022-12-31T02:28:57;10.99;87.21
76577;DHT22;65441;44.748;37.600;2022-12-31T02:31:36;10.97;87.32
76577;DHT22;65441;44.748;37.600;2022-12-31T02:34:15;11.00;87.21
76577;DHT22;65441;44.748;37.600;2022-12-31T02:36:58;11.01;87.09
76577;DHT22;65441;44.748;37.600;2022-12-31T02:39:38;11.01;87.50
76577;DHT22;65441;44.748;37.600;2022-12-31T02:42:13;11.01;88.02
76577;DHT22;65441;44.748;37.600;2022-12-31T02:44:48;11.05;87.93
76577;DHT22;65441;44.748;37.600;2022-12-31T02:47:29;11.04;88.12
76577;DHT22;65441;44.748;37.600;2022-12-31T02:50:19;11.01;88.08
76577;DHT22;65441;44.748;37.600;2022-12-31T02:53:06;11.01;88.27
76577;DHT22;65441;44.748;37.600;2022-12-31T02:55:47;11.01;88.43
76577;DHT22;65441;44.748;37.600;2022-12-31T02:58:30;11.02;87.93
76577;DHT22;65441;44.748;37.600;2022-12-31T03:01:25;11.00;87.27
76577;DHT22;65441;44.748;37.600;2022-12-31T03:04:24;11.05;87.37
76577;DHT22;65441;44.748;37.600;2022-12-31T03:07:07;11.08;87.56
76577;DHT22;65441;44.748;37.600;2022-12-31T03:09:44;11.07;87.93
76577;DHT22;65441;44.748;37.600;2022-12-31T03:12:20;11.10;87.50
76577;DHT22;65441;44.748;37.600;2022-12-31T03:15:14;11.09;87.52
76577;DHT22;65441;44.748;37.600;2022-12-31T03:17:59;11.11;87.67
76577;DHT22;65441;44.748;37.600;2022-12-31T03:20:38;11.13;87.61
76577;DHT22;65441;44.748;37.600;2022-12-31T03:23:33;11.10;87.80
76577;DHT22;65441;44.748;37.600;2022-12-31T03:26:09;11.13;87.70
76577;DHT22;65441;44.748;37.600;2022-12-31T03:28:43;11.08;87.51
76577;DHT22;65441;44.748;37.600;2022-12-31T03:31:19;11.09;87.53
76577;DHT22;65441;44.748;37.600;2022-12-31T03:33:53;11.09;87.70
76577;DHT22;65441;44.748;37.600;2022-12-31T03:36:28;11.09;87.22
76577;DHT22;65441;44.748;37.600;2022-12-31T03:39:02;11.07;87.57
76577;DHT22;65441;44.748;37.600;2022-12-31T03:41:36;11.03;87.66
76577;DHT22;65441;44.748;37.600;2022-12-31T03:44:10;11.07;87.74
76577;DHT22;65441;44.748;37.600;2022-12-31T03:46:44;11.04;87.98
76577;DHT22;65441;44.748;37.600;2022-12-31T03:49:18;11.02;87.68
76577;DHT22;65441;44.748;37.600;2022-12-31T03:51:54;11.03;87.05
76577;DHT22;65441;44.748;37.600;2022-12-31T03:54:29;11.04;86.90
76577;DHT22;65441;44.748;37.600;2022-12-31T03:57:03;11.03;86.76
76577;DHT22;65441;44.748;37.600;2022-12-31T03:59:37;11.05;87.13
76577;DHT22;65441;44.748;37.600;2022-12-31T04:02:11;11.10;87.25
76577;DHT22;65441;44.748;37.600;2022-12-31T04:04:44;11.08;87.53
76577;DHT22;65441;44.748;37.600;2022-12-31T04:07:20;11.07;87.81
76577;DHT22;65441;44.748;37.600;2022-12-31T04:09:54;11.02;87.96
76577;DHT22;65441;44.748;37.600;2022-12-31T04:12:28;11.01;88.31
76577;DHT22;65441;44.748;37.600;2022-12-31T04:15:02;11.04;88.25
76577;DHT22;65441;44.748;37.600;2022-12-31T04:17:41;11.10;87.94
76577;DHT22;65441;44.748;37.600;2022-12-31T04:20:15;11.05;87.99
76577;DHT22;65441;44.748;37.600;2022-12-31T04:22:51;11.08;87.90
76577;DHT22;65441;44.748;37.600;2022-12-31T04:25:25;11.08;87.93
76577;DHT22;65441;44.748;37.600;2022-12-31T04:27:59;11.08;87.94
76577;DHT22;65441;44.748;37.600;2022-12-31T04:30:33;11.04;88.08
76577;DHT22;65441;44.748;37.600;2022-12-31T04:33:12;11.07;87.92
76577;DHT22;65441;44.748;37.600;2022-12-31T04:35:47;11.08;88.15
76577;DHT22;65441;44.748;37.600;2022-12-31T04:38:27;11.09;87.98
76577;DHT22;65441;44.748;37.600;2022-12-31T04:41:04;11.00;88.57
76577;DHT22;65441;44.748;37.600;2022-12-31T04:43:53;11.05;88.37
76577;DHT22;65441;44.748;37.600;2022-12-31T04:46:28;11.04;88.30
76577;DHT22;65441;44.748;37.600;2022-12-31T04:49:02;11.07;88.31
76577;DHT22;65441;44.748;37.600;2022-12-31T04:51:37;11.01;88.52
76577;DHT22;65441;44.748;37.600;2022-12-31T04:54:12;11.02;87.86
76577;DHT22;65441;44.748;37.600;2022-12-31T04:56:46;11.08;87.71
76577;DHT22;65441;44.748;37.600;2022-12-31T04:59:20;11.05;88.08
76577;DHT22;65441;44.748;37.600;2022-12-31T05:01:54;11.13;87.35
76577;DHT22;65441;44.748;37.600;2022-12-31T05:04:28;11.23;86.91
76577;DHT22;65441;44.748;37.600;2022-12-31T05:07:02;11.22;86.00
76577;DHT22;65441;44.748;37.600;2022-12-31T05:09:37;11.26;85.58
76577;DHT22;65441;44.748;37.600;2022-12-31T05:12:11;11.22;86.27
76577;DHT22;65441;44.748;37.600;2022-12-31T05:14:45;11.28;86.35
76577;DHT22;65441;44.748;37.600;2022-12-31T05:17:19;11.27;86.35
76577;DHT22;65441;44.748;37.600;2022-12-31T05:19:54;11.33;84.86
76577;DHT22;65441;44.748;37.600;2022-12-31T05:22:28;11.39;83.65
76577;DHT22;65441;44.748;37.600;2022-12-31T05:25:04;11.39;83.02
76577;DHT22;65441;44.748;37.600;2022-12-31T05:27:38;11.27;81.68
76577;DHT22;65441;44.748;37.600;2022-12-31T05:30:13;11.30;81.52
76577;DHT22;65441;44.748;37.600;2022-12-31T05:32:49;11.31;81.55
76577;DHT22;65441;44.748;37.600;2022-12-31T05:35:24;11.26;81.21
76577;DHT22;65441;44.748;37.600;2022-12-31T05:37:59;11.25;81.23
76577;DHT22;65441;44.748;37.600;2022-12-31T05:40:34;11.23;80.43
76577;DHT22;65441;44.748;37.600;2022-12-31T05:43:08;11.14;80.09
76577;DHT22;65441;44.748;37.600;2022-12-31T05:45:42;11.14;80.24
76577;DHT22;65441;44.748;37.600;2022-12-31T05:48:18;11.09;80.89
76577;DHT22;65441;44.748;37.600;2022-12-31T05:50:52;11.04;80.44
76577;DHT22;65441;44.748;37.600;2022-12-31T05:53:26;11.02;79.82
76577;DHT22;65441;44.748;37.600;2022-12-31T05:56:04;10.94;79.91
76577;DHT22;65441;44.748;37.600;2022-12-31T05:58:38;11.02;79.43
76577;DHT22;65441;44.748;37.600;2022-12-31T06:01:12;11.03;79.24
76577;DHT22;65441;44.748;37.600;2022-12-31T06:03:46;11.02;79.27
76577;DHT22;65441;44.748;37.600;2022-12-31T06:06:20;11.18;79.27
76577;DHT22;65441;44.748;37.600;2022-12-31T06:08:54;11.34;79.35
76577;DHT22;65441;44.748;37.600;2022-12-31T06:11:35;11.49;78.03
76577;DHT22;65441;44.748;37.600;2022-12-31T06:14:12;11.71;77.68
76577;DHT22;65441;44.748;37.600;2022-12-31T06:16:46;11.64;76.53
76577;DHT22;65441;44.748;37.600;2022-12-31T06:19:22;11.63;76.53
76577;DHT22;65441;44.748;37.600;2022-12-31T06:22:01;11.62;76.97
76577;DHT22;65441;44.748;37.600;2022-12-31T06:24:40;11.63;77.31
76577;DHT22;65441;44.748;37.600;2022-12-31T06:27:16;11.69;77.00
76577;DHT22;65441;44.748;37.600;2022-12-31T06:29:51;11.69;77.37
76577;DHT22;65441;44.748;37.600;2022-12-31T06:32:24;11.99;76.80
76577;DHT22;65441;44.748;37.600;2022-12-31T06:34:58;12.48;74.43
76577;DHT22;65441;44.748;37.600;2022-12-31T06:37:32;12.32;75.39
76577;DHT22;65441;44.748;37.600;2022-12-31T06:40:07;12.28;75.18
76577;DHT22;65441;44.748;37.600;2022-12-31T06:42:43;12.12;75.31
76577;DHT22;65441;44.748;37.600;2022-12-31T06:45:20;12.00;75.74
76577;DHT22;65441;44.748;37.600;2022-12-31T06:47:57;12.14;76.09
76577;DHT22;65441;44.748;37.600;2022-12-31T06:50:31;12.16;75.76
76577;DHT22;65441;44.748;37.600;2022-12-31T06:53:05;12.19;75.65
76577;DHT22;65441;44.748;37.600;2022-12-31T06:55:39;12.07;76.14
76577;DHT22;65441;44.748;37.600;2022-12-31T06:58:15;12.11;76.22
76577;DHT22;65441;44.748;37.600;2022-12-31T07:00:54;11.99;75.70
76577;DHT22;65441;44.748;37.600;2022-12-31T07:03:36;11.90;76.60
76577;DHT22;65441;44.748;37.600;2022-12-31T07:06:15;11.99;76.82
76577;DHT22;65441;44.748;37.600;2022-12-31T07:08:55;12.66;74.27
76577;DHT22;65441;44.748;37.600;2022-12-31T07:11:37;13.46;72.82
76577;DHT22;65441;44.748;37.600;2022-12-31T07:14:24;13.52;71.74
76577;DHT22;65441;44.748;37.600;2022-12-31T07:17:25;13.61;71.62
76577;DHT22;65441;44.748;37.600;2022-12-31T07:20:07;13.01;74.25
76577;DHT22;65441;44.748;37.600;2022-12-31T07:22:46;13.39;73.57
76577;DHT22;65441;44.748;37.600;2022-12-31T07:25:21;13.16;74.26
76577;DHT22;65441;44.748;37.600;2022-12-31T07:28:05;12.92;75.00
76577;DHT22;65441;44.748;37.600;2022-12-31T07:30:46;12.91;75.49
76577;DHT22;65441;44.748;37.600;2022-12-31T07:33:37;12.81;75.78
76577;DHT22;65441;44.748;37.600;2022-12-31T07:36:25;12.77;75.79
76577;DHT22;65441;44.748;37.600;2022-12-31T07:39:05;12.63;76.76
76577;DHT22;65441;44.748;37.600;2022-12-31T07:41:54;12.69;77.05
76577;DHT22;65441;44.748;37.600;2022-12-31T07:44:53;12.77;77.11
76577;DHT22;65441;44.748;37.600;2022-12-31T07:47:33;13.11;74.47
76577;DHT22;65441;44.748;37.600;2022-12-31T07:50:15;13.54;72.03
76577;DHT22;65441;44.748;37.600;2022-12-31T07:52:52;13.98;73.39
76577;DHT22;65441;44.748;37.600;2022-12-31T07:55:28;14.11;70.64
76577;DHT22;65441;44.748;37.600;2022-12-31T07:58:09;13.99;70.10
76577;DHT22;65441;44.748;37.600;2022-12-31T08:00:48;14.08;72.31
76577;DHT22;65441;44.748;37.600;2022-12-31T08:03:43;14.18;70.77
76577;DHT22;65441;44.748;37.600;2022-12-31T08:06:22;14.30;70.68
76577;DHT22;65441;44.748;37.600;2022-12-31T08:09:02;14.43;70.87
76577;DHT22;65441;44.748;37.600;2022-12-31T08:11:44;14.00;71.67
76577;DHT22;65441;44.748;37.600;2022-12-31T08:14:23;13.65;73.11
76577;DHT22;65441;44.748;37.600;2022-12-31T08:16:58;13.43;74.01
76577;DHT22;65441;44.748;37.600;2022-12-31T08:19:38;13.16;75.82
76577;DHT22;65441;44.748;37.600;2022-12-31T08:22:34;13.02;76.56
76577;DHT22;65441;44.748;37.600;2022-12-31T08:25:21;12.88;77.36
76577;DHT22;65441;44.748;37.600;2022-12-31T08:28:03;12.92;77.34
76577;DHT22;65441;44.748;37.600;2022-12-31T08:30:49;12.92;77.88
76577;DHT22;65441;44.748;37.600;2022-12-31T08:33:28;12.80;78.18
76577;DHT22;65441;44.748;37.600;2022-12-31T08:36:13;12.78;78.51
76577;DHT22;65441;44.748;37.600;2022-12-31T08:38:55;12.69;79.04
76577;DHT22;65441;44.748;37.600;2022-12-31T08:41:36;12.57;78.88
76577;DHT22;65441;44.748;37.600;2022-12-31T08:44:23;12.47;79.62
76577;DHT22;65441;44.748;37.600;2022-12-31T08:47:08;12.44;79.89
76577;DHT22;65441;44.748;37.600;2022-12-31T08:49:43;12.46;79.92
76577;DHT22;65441;44.748;37.600;2022-12-31T08:52:22;12.47;80.00
76577;DHT22;65441;44.748;37.600;2022-12-31T08:55:01;12.66;79.76
76577;DHT22;65441;44.748;37.600;2022-12-31T08:57:41;12.58;78.79
76577;DHT22;65441;44.748;37.600;2022-12-31T09:00:19;12.58;79.61
76577;DHT22;65441;44.748;37.600;2022-12-31T09:03:14;12.45;79.87
76577;DHT22;65441;44.748;37.600;2022-12-31T09:05:55;12.35;80.80
76577;DHT22;65441;44.748;37.600;2022-12-31T09:08:42;12.36;80.67
76577;DHT22;65441;44.748;37.600;2022-12-31T09:11:23;12.37;81.08
76577;DHT22;65441;44.748;37.600;2022-12-31T09:14:34;12.35;80.62
76577;DHT22;65441;44.748;37.600;2022-12-31T09:17:40;12.41;80.67
76577;DHT22;65441;44.748;37.600;2022-12-31T09:20:21;12.33;80.78
76577;DHT22;65441;44.748;37.600;2022-12-31T09:22:57;12.36;80.92
76577;DHT22;65441;44.748;37.600;2022-12-31T09:25:40;12.32;80.60
76577;DHT22;65441;44.748;37.600;2022-12-31T09:28:21;12.37;80.34
76577;DHT22;65441;44.748;37.600;2022-12-31T09:31:04;12.41;80.50
76577;DHT22;65441;44.748;37.600;2022-12-31T09:33:46;12.37;80.49
76577;DHT22;65441;44.748;37.600;2022-12-31T09:36:28;12.33;80.55
76577;DHT22;65441;44.748;37.600;2022-12-31T09:39:07;12.40;80.34
76577;DHT22;65441;44.748;37.600;2022-12-31T09:41:59;12.41;80.40
76577;DHT22;65441;44.748;37.600;2022-12-31T09:45:16;12.49;80.22
76577;DHT22;65441;44.748;37.600;2022-12-31T09:51:01;12.41;80.19
76577;DHT22;65441;44.748;37.600;2022-12-31T09:57:22;12.26;81.47
76577;DHT22;65441;44.748;37.600;2022-12-31T10:00:03;12.30;81.64
76577;DHT22;65441;44.748;37.600;2022-12-31T10:03:06;12.34;82.00
76577;DHT22;65441;44.748;37.600;2022-12-31T10:05:55;12.38;81.42
76577;DHT22;65441;44.748;37.600;2022-12-31T10:08:42;12.38;81.30
76577;DHT22;65441;44.748;37.600;2022-12-31T10:11:25;12.40;81.57
76577;DHT22;65441;44.748;37.600;2022-12-31T10:14:14;12.37;81.55
76577;DHT22;65441;44.748;37.600;2022-12-31T10:17:16;12.33;81.76
76577;DHT22;65441;44.748;37.600;2022-12-31T10:20:10;12.36;81.54
76577;DHT22;65441;44.748;37.600;2022-12-31T10:26:09;12.40;80.01
76577;DHT22;65441;44.748;37.600;2022-12-31T10:28:53;12.37;80.30
76577;DHT22;65441;44.748;37.600;2022-12-31T10:31:38;12.27;80.78
76577;DHT22;65441;44.748;37.600;2022-12-31T10:34:14;12.28;80.71
76577;DHT22;65441;44.748;37.600;2022-12-31T10:36:55;12.30;80.94
76577;DHT22;65441;44.748;37.600;2022-12-31T10:39:49;12.33;81.24
76577;DHT22;65441;44.748;37.600;2022-12-31T10:42:47;12.36;81.30
76577;DHT22;65441;44.748;37.600;2022-12-31T10:46:00;12.23;81.72
76577;DHT22;65441;44.748;37.600;2022-12-31T10:49:04;12.20;81.65
76577;DHT22;65441;44.748;37.600;2022-12-31T10:55:20;12.37;81.38
76577;DHT22;65441;44.748;37.600;2022-12-31T10:58:24;12.34;81.81
76577;DHT22;65441;44.748;37.600;2022-12-31T11:01:11;12.28;81.92
76577;DHT22;65441;44.748;37.600;2022-12-31T11:07:31;12.22;82.25
76577;DHT22;65441;44.748;37.600;2022-12-31T11:10:46;12.19;82.02
76577;DHT22;65441;44.748;37.600;2022-12-31T11:16:42;12.15;82.36
76577;DHT22;65441;44.748;37.600;2022-12-31T11:19:26;12.10;82.18
76577;DHT22;65441;44.748;37.600;2022-12-31T11:22:19;12.02;82.24
76577;DHT22;65441;44.748;37.600;2022-12-31T11:25:19;12.08;82.52
76577;DHT22;65441;44.748;37.600;2022-12-31T11:28:10;12.05;82.07
76577;DHT22;65441;44.748;37.600;2022-12-31T11:31:22;12.06;81.87
76577;DHT22;65441;44.748;37.600;2022-12-31T11:34:11;12.15;81.91
76577;DHT22;65441;44.748;37.600;2022-12-31T11:37:03;12.06;81.07
76577;DHT22;65441;44.748;37.600;2022-12-31T11:39:48;12.05;81.39
76577;DHT22;65441;44.748;37.600;2022-12-31T11:42:40;12.03;82.13
76577;DHT22;65441;44.748;37.600;2022-12-31T11:45:32;12.17;81.88
76577;DHT22;65441;44.748;37.600;2022-12-31T11:48:21;12.15;81.29
76577;DHT22;65441;44.748;37.600;2022-12-31T11:51:12;12.07;81.64
76577;DHT22;65441;44.748;37.600;2022-12-31T11:54:07;12.06;81.53
76577;DHT22;65441;44.748;37.600;2022-12-31T11:56:52;12.02;81.45
76577;DHT22;65441;44.748;37.600;2022-12-31T11:59:31;11.99;82.11
76577;DHT22;65441;44.748;37.600;2022-12-31T12:02:26;12.02;81.59
76577;DHT22;65441;44.748;37.600;2022-12-31T12:05:04;11.99;81.62
76577;DHT22;65441;44.748;37.600;2022-12-31T12:07:39;11.96;81.52
76577;DHT22;65441;44.748;37.600;2022-12-31T12:10:23;11.93;82.13
76577;DHT22;65441;44.748;37.600;2022-12-31T12:12:58;11.85;82.58
76577;DHT22;65441;44.748;37.600;2022-12-31T12:15:33;11.84;82.37
76577;DHT22;65441;44.748;37.600;2022-12-31T12:18:17;11.74;83.19
76577;DHT22;65441;44.748;37.600;2022-12-31T12:21:05;11.78;82.75
76577;DHT22;65441;44.748;37.600;2022-12-31T12:23:52;11.74;82.93
76577;DHT22;65441;44.748;37.600;2022-12-31T12:26:33;11.71;83.22
76577;DHT22;65441;44.748;37.600;2022-12-31T12:29:10;11.71;83.36
76577;DHT22;65441;44.748;37.600;2022-12-31T12:31:54;11.74;83.52
76577;DHT22;65441;44.748;37.600;2022-12-31T12:34:30;11.73;83.39
76577;DHT22;65441;44.748;37.600;2022-12-31T12:37:15;11.71;83.30
76577;DHT22;65441;44.748;37.600;2022-12-31T12:39:55;11.71;83.20
76577;DHT22;65441;44.748;37.600;2022-12-31T12:42:31;11.73;82.97
76577;DHT22;65441;44.748;37.600;2022-12-31T12:45:13;11.68;83.01
76577;DHT22;65441;44.748;37.600;2022-12-31T12:47:52;11.70;82.78
76577;DHT22;65441;44.748;37.600;2022-12-31T12:50:37;11.67;82.95
76577;DHT22;65441;44.748;37.600;2022-12-31T12:53:22;11.72;82.62
76577;DHT22;65441;44.748;37.600;2022-12-31T12:56:05;11.76;82.18
76577;DHT22;65441;44.748;37.600;2022-12-31T12:58:49;11.77;82.33
76577;DHT22;65441;44.748;37.600;2022-12-31T13:01:33;11.71;82.53
76577;DHT22;65441;44.748;37.600;2022-12-31T13:04:32;11.70;82.49
76577;DHT22;65441;44.748;37.600;2022-12-31T13:07:23;11.66;83.10
76577;DHT22;65441;44.748;37.600;2022-12-31T13:10:19;11.74;82.91
76577;DHT22;65441;44.748;37.600;2022-12-31T13:13:00;11.75;83.11
76577;DHT22;65441;44.748;37.600;2022-12-31T13:15:41;11.79;82.74
76577;DHT22;65441;44.748;37.600;2022-12-31T13:18:27;11.83;82.96
76577;DHT22;65441;44.748;37.600;2022-12-31T13:24:21;11.79;82.96
76577;DHT22;65441;44.748;37.600;2022-12-31T13:27:06;11.83;82.81
76577;DHT22;65441;44.748;37.600;2022-12-31T13:29:46;11.90;82.41
76577;DHT22;65441;44.748;37.600;2022-12-31T13:32:27;11.84;82.52
76577;DHT22;65441;44.748;37.600;2022-12-31T13:35:20;11.88;82.90
76577;DHT22;65441;44.748;37.600;2022-12-31T13:37:59;11.76;83.07
76577;DHT22;65441;44.748;37.600;2022-12-31T13:40:40;11.70;83.42
76577;DHT22;65441;44.748;37.600;2022-12-31T13:43:21;11.72;83.09
76577;DHT22;65441;44.748;37.600;2022-12-31T13:46:07;11.63;83.72
76577;DHT22;65441;44.748;37.600;2022-12-31T13:48:47;11.68;83.60
76577;DHT22;65441;44.748;37.600;2022-12-31T13:51:32;11.66;83.91
76577;DHT22;65441;44.748;37.600;2022-12-31T13:54:17;11.58;83.78
76577;DHT22;65441;44.748;37.600;2022-12-31T13:57:03;11.60;84.08
76577;DHT22;65441;44.748;37.600;2022-12-31T13:59:41;11.58;84.07
76577;DHT22;65441;44.748;37.600;2022-12-31T14:02:27;11.53;84.17
76577;DHT22;65441;44.748;37.600;2022-12-31T14:05:14;11.62;83.75
76577;DHT22;65441;44.748;37.600;2022-12-31T14:07:52;11.58;83.75
76577;DHT22;65441;44.748;37.600;2022-12-31T14:10:40;11.56;83.65
76577;DHT22;65441;44.748;37.600;2022-12-31T14:13:44;11.57;83.68
76577;DHT22;65441;44.748;37.600;2022-12-31T14:16:26;11.45;83.94
76577;DHT22;65441;44.748;37.600;2022-12-31T14:19:06;11.40;84.10
76577;DHT22;65441;44.748;37.600;2022-12-31T14:21:52;11.41;84.29
76577;DHT22;65441;44.748;37.600;2022-12-31T14:24:36;11.45;83.58
76577;DHT22;65441;44.748;37.600;2022-12-31T14:27:18;11.38;83.45
76577;DHT22;65441;44.748;37.600;2022-12-31T14:29:56;11.38;83.54
76577;DHT22;65441;44.748;37.600;2022-12-31T14:32:47;11.27;84.06
76577;DHT22;65441;44.748;37.600;2022-12-31T14:35:40;11.17;84.64
76577;DHT22;65441;44.748;37.600;2022-12-31T14:38:31;11.14;84.37
76577;DHT22;65441;44.748;37.600;2022-12-31T14:41:21;11.08;84.81
76577;DHT22;65441;44.748;37.600;2022-12-31T14:44:07;11.01;84.82
76577;DHT22;65441;44.748;37.600;2022-12-31T14:46:58;10.83;85.19
76577;DHT22;65441;44.748;37.600;2022-12-31T14:49:45;10.86;83.20
76577;DHT22;65441;44.748;37.600;2022-12-31T14:52:22;10.67;85.45
76577;DHT22;65441;44.748;37.600;2022-12-31T14:55:18;10.54;85.31
76577;DHT22;65441;44.748;37.600;2022-12-31T14:58:00;10.38;85.56
76577;DHT22;65441;44.748;37.600;2022-12-31T15:00:36;10.12;87.21
76577;DHT22;65441;44.748;37.600;2022-12-31T15:03:23;10.15;86.03
76577;DHT22;65441;44.748;37.600;2022-12-31T15:06:11;9.98;87.15
76577;DHT22;65441;44.748;37.600;2022-12-31T15:08:54;9.82;87.65
76577;DHT22;65441;44.748;37.600;2022-12-31T15:11:42;9.85;87.57
76577;DHT22;65441;44.748;37.600;2022-12-31T15:17:36;9.85;88.18
76577;DHT22;65441;44.748;37.600;2022-12-31T15:20:47;9.82;88.67
76577;DHT22;65441;44.748;37.600;2022-12-31T15:23:29;9.89;88.67
76577;DHT22;65441;44.748;37.600;2022-12-31T15:26:19;9.93;88.86
76577;DHT22;65441;44.748;37.600;2022-12-31T15:29:01;9.99;88.64
76577;DHT22;65441;44.748;37.600;2022-12-31T15:31:43;10.15;88.18
76577;DHT22;65441;44.748;37.600;2022-12-31T15:34:24;10.18;86.91
76577;DHT22;65441;44.748;37.600;2022-12-31T15:37:02;10.24;87.01
76577;DHT22;65441;44.748;37.600;2022-12-31T15:39:41;10.30;86.97
76577;DHT22;65441;44.748;37.600;2022-12-31T15:42:40;10.44;86.00
76577;DHT22;65441;44.748;37.600;2022-12-31T15:45:20;10.50;84.89
76577;DHT22;65441;44.748;37.600;2022-12-31T15:47:57;10.48;84.61
76577;DHT22;65441;44.748;37.600;2022-12-31T15:50:34;10.50;84.01
76577;DHT22;65441;44.748;37.600;2022-12-31T15:53:21;10.50;83.74
76577;DHT22;65441;44.748;37.600;2022-12-31T15:55:58;10.50;83.73
76577;DHT22;65441;44.748;37.600;2022-12-31T15:58:34;10.46;85.32
76577;DHT22;65441;44.748;37.600;2022-12-31T16:01:14;10.52;86.60
76577;DHT22;65441;44.748;37.600;2022-12-31T16:03:55;10.54;86.23
76577;DHT22;65441;44.748;37.600;2022-12-31T16:06:32;10.65;86.14
76577;DHT22;65441;44.748;37.600;2022-12-31T16:09:16;10.70;86.00
76577;DHT22;65441;44.748;37.600;2022-12-31T16:11:55;10.75;85.74
76577;DHT22;65441;44.748;37.600;2022-12-31T16:14:33;10.79;85.64
76577;DHT22;65441;44.748;37.600;2022-12-31T16:17:25;10.68;86.09
76577;DHT22;65441;44.748;37.600;2022-12-31T16:20:20;10.68;86.43
76577;DHT22;65441;44.748;37.600;2022-12-31T16:22:55;10.66;86.51
76577;DHT22;65441;44.748;37.600;2022-12-31T16:25:30;10.62;86.76
76577;DHT22;65441;44.748;37.600;2022-12-31T16:28:05;10.55;87.02
76577;DHT22;65441;44.748;37.600;2022-12-31T16:30:39;10.55;87.03
76577;DHT22;65441;44.748;37.600;2022-12-31T16:33:15;10.67;86.65
76577;DHT22;65441;44.748;37.600;2022-12-31T16:35:54;10.72;86.58
76577;DHT22;65441;44.748;37.600;2022-12-31T16:38:33;10.74;86.41
76577;DHT22;65441;44.748;37.600;2022-12-31T16:41:15;10.82;86.17
76577;DHT22;65441;44.748;37.600;2022-12-31T16:43:54;10.75;86.34
76577;DHT22;65441;44.748;37.600;2022-12-31T16:46:29;10.79;86.24
76577;DHT22;65441;44.748;37.600;2022-12-31T16:49:14;10.79;85.91
76577;DHT22;65441;44.748;37.600;2022-12-31T16:51:49;10.81;85.90
76577;DHT22;65441;44.748;37.600;2022-12-31T16:54:27;10.75;86.06
76577;DHT22;65441;44.748;37.600;2022-12-31T16:57:02;10.73;85.96
76577;DHT22;65441;44.748;37.600;2022-12-31T16:59:40;10.68;86.06
76577;DHT22;65441;44.748;37.600;2022-12-31T17:02:16;10.68;85.47
76577;DHT22;65441;44.748;37.600;2022-12-31T17:04:53;10.69;84.81
76577;DHT22;65441;44.748;37.600;2022-12-31T17:07:38;10.67;85.00
76577;DHT22;65441;44.748;37.600;2022-12-31T17:10:17;10.67;84.73
76577;DHT22;65441;44.748;37.600;2022-12-31T17:12:54;10.63;84.82